Time;durP1;ratioP1;P1;durP2;ratioP2;P2;SDS_P1;SDS_P2;PMS_P1;PMS_P2;Temp;Humidity;BMP_temperature;BMP_pressure;BME280_temperature;BME280_humidity;BME280_pressure;Samples;Min_cycle;Max_cycle;Signal;HPM_P1;HPM_P2
2023/09/09 00:00:42;;;;;;;22.40;15.45;;;;;;;22.78;77.42;101474.06;5113853;28;20084;-64
2023/09/09 00:03:08;;;;;;;18.73;16.02;;;;;;;22.59;77.76;101473.75;5114300;28;20032;-63
2023/09/09 00:05:33;;;;;;;17.40;14.63;;;;;;;22.56;77.81;101473.81;5113502;28;20381;-63
2023/09/09 00:07:59;;;;;;;17.83;14.90;;;;;;;22.43;77.98;101475.09;5113897;28;20116;-64
2023/09/09 00:10:25;;;;;;;18.70;15.32;;;;;;;22.38;78.95;101472.53;5114257;28;20023;-64
2023/09/09 00:12:50;;;;;;;17.80;14.85;;;;;;;22.32;79.05;101470.03;5114187;28;20035;-63
2023/09/09 00:15:15;;;;;;;19.05;14.50;;;;;;;22.38;78.27;101468.97;5114145;28;20020;-63
2023/09/09 00:17:41;;;;;;;17.85;14.02;;;;;;;22.29;78.46;101471.94;5095676;28;20038;-65
2023/09/09 00:20:11;;;;;;;15.40;13.27;;;;;;;22.29;78.30;101470.13;5114218;28;20020;-64
2023/09/09 00:22:38;;;;;;;22.05;13.77;;;;;;;22.26;78.76;101470.19;5114260;28;20100;-64
2023/09/09 00:25:05;;;;;;;20.40;13.73;;;;;;;22.19;78.65;101474.00;5113960;28;20024;-64
2023/09/09 00:27:30;;;;;;;21.33;13.30;;;;;;;22.15;78.80;101472.31;5113826;28;20035;-64
2023/09/09 00:29:55;;;;;;;19.90;13.68;;;;;;;22.07;79.51;101466.22;5113839;28;20110;-63
2023/09/09 00:32:21;;;;;;;17.80;12.90;;;;;;;22.20;78.74;101460.47;5113705;28;20032;-63
2023/09/09 00:34:46;;;;;;;15.90;12.85;;;;;;;22.27;77.99;101460.31;5113758;28;20063;-64
2023/09/09 00:37:11;;;;;;;22.45;13.18;;;;;;;22.42;77.02;101460.75;5113761;28;20127;-63
2023/09/09 00:39:37;;;;;;;19.00;13.95;;;;;;;22.55;77.01;101457.72;5113558;28;20028;-64
2023/09/09 00:42:02;;;;;;;20.63;13.20;;;;;;;22.57;76.62;101462.16;5113586;28;20035;-64
2023/09/09 00:44:28;;;;;;;19.05;13.43;;;;;;;22.56;76.31;101452.28;5113534;28;20059;-64
2023/09/09 00:46:53;;;;;;;20.10;13.68;;;;;;;22.58;76.15;101457.63;5113578;28;20073;-63
2023/09/09 00:49:20;;;;;;;16.63;12.30;;;;;;;22.50;75.35;101464.13;5113721;28;20110;-63
2023/09/09 00:51:45;;;;;;;16.33;12.80;;;;;;;22.43;76.12;101454.44;5113596;28;20024;-63
2023/09/09 00:54:11;;;;;;;19.67;12.80;;;;;;;22.36;76.37;101460.94;5113480;28;20016;-63
2023/09/09 00:56:37;;;;;;;16.50;12.43;;;;;;;22.30;76.41;101462.91;5113709;28;20418;-64
2023/09/09 00:59:03;;;;;;;17.70;12.05;;;;;;;22.18;76.55;101462.34;5113473;28;20485;-63
2023/09/09 01:01:31;;;;;;;15.93;12.55;;;;;;;22.09;77.05;101462.53;5113178;28;20044;-64
2023/09/09 01:03:57;;;;;;;18.30;12.68;;;;;;;22.14;76.86;101465.13;5094997;28;20100;-64
2023/09/09 01:06:22;;;;;;;16.55;12.98;;;;;;;22.08;76.64;101460.78;5113633;28;20526;-63
2023/09/09 01:08:48;;;;;;;16.98;13.70;;;;;;;22.07;77.32;101460.84;5113234;28;20448;-64
2023/09/09 01:11:14;;;;;;;18.33;13.48;;;;;;;22.03;76.91;101460.03;5113630;28;20024;-63
2023/09/09 01:13:39;;;;;;;22.30;13.82;;;;;;;22.04;77.23;101460.91;5113268;28;20016;-64
2023/09/09 01:16:06;;;;;;;18.95;13.77;;;;;;;22.02;77.04;101462.78;5114435;28;20362;-63
2023/09/09 01:18:34;;;;;;;26.88;14.30;;;;;;;22.09;76.44;101467.91;5117435;28;20073;-63
2023/09/09 01:21:15;;;;;;;21.83;15.88;;;;;;;22.14;76.81;101466.06;5099667;28;20485;-63
2023/09/09 01:23:40;;;;;;;18.10;15.30;;;;;;;22.10;77.02;101464.34;5114027;28;20024;-63
2023/09/09 01:26:06;;;;;;;20.63;16.75;;;;;;;22.11;76.81;101457.13;5117273;28;20024;-63
2023/09/09 01:28:31;;;;;;;24.70;17.48;;;;;;;22.16;76.88;101456.09;5117409;28;20028;-64
2023/09/09 01:30:57;;;;;;;25.00;19.15;;;;;;;22.08;77.33;101457.22;5117295;28;20108;-63
2023/09/09 01:33:22;;;;;;;25.52;19.80;;;;;;;22.13;77.58;101456.19;5117403;28;20024;-64
2023/09/09 01:35:48;;;;;;;23.52;18.13;;;;;;;22.11;77.56;101457.13;5117026;28;20388;-63
2023/09/09 01:38:15;;;;;;;23.52;18.38;;;;;;;22.12;76.95;101451.72;5117041;28;20027;-64
2023/09/09 01:40:40;;;;;;;24.50;19.17;;;;;;;22.02;78.12;101454.69;5117122;28;20032;-63
2023/09/09 01:43:05;;;;;;;24.73;18.67;;;;;;;22.05;77.41;101451.91;5117270;28;20046;-63
2023/09/09 01:45:32;;;;;;;23.52;18.50;;;;;;;21.96;77.63;101451.22;5116875;28;20023;-63
2023/09/09 01:47:58;;;;;;;23.67;18.63;;;;;;;21.86;77.68;101443.44;5116913;28;20051;-63
2023/09/09 01:50:23;;;;;;;23.75;18.80;;;;;;;21.83;77.97;101448.91;5116848;28;20336;-62
2023/09/09 01:52:49;;;;;;;26.95;19.65;;;;;;;21.77;77.94;101455.34;5116777;28;20028;-64
2023/09/09 01:55:14;;;;;;;25.50;20.08;;;;;;;21.72;78.39;101449.19;5116773;28;20028;-63
2023/09/09 01:57:40;;;;;;;26.05;20.00;;;;;;;21.60;78.99;101455.78;5116715;28;20034;-64
2023/09/09 02:00:07;;;;;;;25.00;21.10;;;;;;;21.45;79.98;101453.44;5116722;28;20570;-64
2023/09/09 02:02:35;;;;;;;26.77;22.30;;;;;;;21.35;80.95;101462.66;5098662;28;20028;-63
2023/09/09 02:05:01;;;;;;;27.20;22.48;;;;;;;21.24;81.50;101453.03;5116476;28;20032;-63
2023/09/09 02:07:27;;;;;;;23.95;19.88;;;;;;;21.38;80.54;101452.72;5116357;28;20032;-63
2023/09/09 02:09:52;;;;;;;26.90;20.00;;;;;;;21.50;80.61;101447.06;5116807;28;20110;-63
2023/09/09 02:12:18;;;;;;;26.30;19.15;;;;;;;21.56;79.60;101450.50;5116553;28;20466;-63
2023/09/09 02:14:43;;;;;;;25.00;17.75;;;;;;;21.64;79.12;101445.81;5116370;28;20028;-64
2023/09/09 02:17:09;;;;;;;23.48;17.75;;;;;;;21.62;79.10;101444.97;5116586;28;20023;-63
2023/09/09 02:19:35;;;;;;;19.98;15.45;;;;;;;21.68;78.29;101443.00;5116307;28;20485;-63
2023/09/09 02:22:00;;;;;;;25.98;16.67;;;;;;;21.69;78.24;101443.88;5116234;28;20038;-64
2023/09/09 02:24:25;;;;;;;22.40;16.92;;;;;;;21.67;77.93;101445.72;5098148;28;20028;-64
2023/09/09 02:26:51;;;;;;;21.75;17.13;;;;;;;21.58;78.20;101444.16;5116033;28;20028;-64
2023/09/09 02:29:17;;;;;;;18.98;16.40;;;;;;;21.56;77.70;101454.06;5097720;28;20485;-64
2023/09/09 02:31:43;;;;;;;24.42;15.95;;;;;;;21.45;78.66;101448.06;5115999;28;20038;-65
2023/09/09 02:34:08;;;;;;;25.63;16.85;;;;;;;21.33;78.71;101456.47;5115818;28;20024;-64
2023/09/09 02:36:34;;;;;;;23.40;16.65;;;;;;;21.25;78.85;101456.59;5116023;28;20437;-64
2023/09/09 02:38:59;;;;;;;21.45;16.33;;;;;;;21.19;78.52;101459.41;5115926;28;20024;-62
2023/09/09 02:41:24;;;;;;;25.27;19.42;;;;;;;21.16;79.46;101454.13;5116050;28;20024;-63
2023/09/09 02:43:50;;;;;;;24.50;20.17;;;;;;;21.08;80.17;101448.06;5115737;28;20366;-63
2023/09/09 02:46:15;;;;;;;28.55;20.80;;;;;;;21.11;80.30;101450.66;5115843;28;20055;-63
2023/09/09 02:48:40;;;;;;;25.60;19.70;;;;;;;21.07;80.18;101455.25;5115684;28;20534;-64
2023/09/09 02:51:06;;;;;;;36.08;21.52;;;;;;;21.01;80.96;101453.56;5115753;28;20034;-63
2023/09/09 02:53:32;;;;;;;27.27;22.05;;;;;;;21.07;81.06;101451.63;5115832;28;20477;-63
2023/09/09 02:55:58;;;;;;;29.00;22.38;;;;;;;21.11;80.54;101458.72;5115805;28;20023;-62
2023/09/09 02:58:23;;;;;;;27.15;21.90;;;;;;;21.13;80.15;101456.88;5115790;28;20076;-64
2023/09/09 03:00:49;;;;;;;29.60;23.60;;;;;;;21.07;81.09;101457.91;5115325;28;20087;-63
2023/09/09 03:03:17;;;;;;;27.42;21.95;;;;;;;21.01;81.21;101455.34;5115377;28;20148;-63
2023/09/09 03:05:42;;;;;;;27.27;21.63;;;;;;;20.98;80.86;101453.66;5115261;28;20024;-63
2023/09/09 03:08:08;;;;;;;28.88;22.17;;;;;;;20.97;80.48;101456.34;5115128;28;20076;-64
2023/09/09 03:10:33;;;;;;;31.27;22.63;;;;;;;20.85;81.31;101449.44;5115251;28;20102;-63
2023/09/09 03:12:59;;;;;;;28.73;22.85;;;;;;;20.80;81.56;101455.84;5115263;28;20024;-63
2023/09/09 03:15:24;;;;;;;25.55;20.98;;;;;;;20.83;81.09;101461.16;5096962;28;20039;-64
2023/09/09 03:17:50;;;;;;;25.13;19.55;;;;;;;20.86;81.11;101461.97;5115145;28;20066;-63
2023/09/09 03:20:16;;;;;;;21.83;19.27;;;;;;;20.96;80.46;101454.59;5115178;28;20039;-64
2023/09/09 03:22:41;;;;;;;22.15;17.58;;;;;;;21.02;80.07;101457.13;5114974;28;20065;-63
2023/09/09 03:25:09;;;;;;;19.55;16.17;;;;;;;21.09;79.85;101456.06;5115034;28;20032;-64
2023/09/09 03:27:35;;;;;;;22.48;17.08;;;;;;;21.08;79.91;101457.00;5114787;28;20027;-63
2023/09/09 03:30:01;;;;;;;21.40;17.45;;;;;;;21.11;79.77;101461.41;5115029;28;20023;-64
2023/09/09 03:32:26;;;;;;;27.98;20.80;;;;;;;21.08;80.35;101459.69;5115157;28;20035;-64
2023/09/09 03:34:52;;;;;;;24.92;18.25;;;;;;;20.89;80.08;101450.25;5114827;28;20358;-63
2023/09/09 03:37:18;;;;;;;20.67;17.20;;;;;;;20.75;80.25;101456.81;5114980;28;20032;-63
2023/09/09 03:39:43;;;;;;;22.23;19.10;;;;;;;20.65;81.73;101457.94;5114157;28;20463;-63
2023/09/09 03:42:09;;;;;;;23.05;19.38;;;;;;;20.52;82.21;101443.00;5114994;28;20103;-64
2023/09/09 03:44:34;;;;;;;23.15;18.27;;;;;;;20.47;82.51;101450.22;5114650;28;20469;-65
2023/09/09 03:47:00;;;;;;;21.30;18.20;;;;;;;20.41;82.30;101461.09;5114999;28;20024;-63
2023/09/09 03:49:25;;;;;;;25.73;19.00;;;;;;;20.35;82.61;101461.22;5114494;28;20419;-62
2023/09/09 03:51:51;;;;;;;23.50;19.15;;;;;;;20.27;83.11;101459.56;5114473;28;20427;-62
2023/09/09 03:54:16;;;;;;;21.45;18.90;;;;;;;20.21;83.40;101462.38;5114344;28;20070;-63
2023/09/09 03:56:42;;;;;;;20.60;18.08;;;;;;;20.12;83.63;101467.03;5114403;28;20024;-62
2023/09/09 03:59:07;;;;;;;26.75;18.15;;;;;;;20.09;83.68;101464.41;5114586;28;20032;-63
2023/09/09 04:01:33;;;;;;;22.38;18.42;;;;;;;20.04;83.89;101466.28;5114054;28;20378;-62
2023/09/09 04:03:58;;;;;;;20.88;18.73;;;;;;;19.97;84.70;101465.53;5114347;28;20065;-63
2023/09/09 04:06:24;;;;;;;20.95;18.77;;;;;;;20.00;84.15;101474.41;5114068;28;20489;-63
2023/09/09 04:08:55;;;;;;;20.63;18.13;;;;;;;19.95;84.32;101472.69;5114177;28;20032;-63
2023/09/09 04:11:20;;;;;;;27.23;21.63;;;;;;;20.00;84.17;101466.34;5114182;28;20024;-63
2023/09/09 04:13:46;;;;;;;39.25;24.17;;;;;;;20.08;84.11;101471.56;5113959;28;20054;-63
2023/09/09 04:16:11;;;;;;;23.60;20.35;;;;;;;20.18;83.21;101464.25;5114023;28;20032;-63
2023/09/09 04:18:37;;;;;;;30.42;20.40;;;;;;;20.18;83.15;101470.50;5114014;28;20362;-62
2023/09/09 04:21:02;;;;;;;36.22;23.63;;;;;;;20.16;83.54;101463.38;5113967;28;20031;-63
2023/09/09 04:23:27;;;;;;;160.40;28.02;;;;;;;20.04;84.82;101468.97;5113837;28;20028;-63
2023/09/09 04:25:53;;;;;;;56.17;25.70;;;;;;;20.04;84.40;101466.28;5113055;28;20440;-63
2023/09/09 04:28:18;;;;;;;46.72;26.15;;;;;;;20.09;84.52;101467.09;5113665;28;20020;-63
2023/09/09 04:30:45;;;;;;;121.05;29.98;;;;;;;20.03;84.97;101468.06;5113714;28;20071;-62
2023/09/09 04:33:12;;;;;;;106.82;28.65;;;;;;;19.90;85.74;101469.22;5113706;28;20027;-63
2023/09/09 04:35:41;;;;;;;111.10;30.67;;;;;;;19.92;85.81;101465.59;5113589;28;20106;-63
2023/09/09 04:38:07;;;;;;;68.68;29.25;;;;;;;19.84;86.00;101451.44;5113804;28;20031;-63
2023/09/09 04:40:33;;;;;;;111.15;29.35;;;;;;;19.82;86.74;101466.66;5113945;28;20016;-63
2023/09/09 04:42:59;;;;;;;105.82;29.02;;;;;;;19.72;86.99;101465.94;5113607;28;20024;-62
2023/09/09 04:45:24;;;;;;;74.47;29.75;;;;;;;19.67;86.99;101480.34;5095368;28;20491;-62
2023/09/09 04:47:51;;;;;;;71.07;29.90;;;;;;;19.62;87.57;101476.88;5113420;28;20073;-63
2023/09/09 04:50:18;;;;;;;68.32;29.52;;;;;;;19.55;87.79;101476.03;5113667;28;20035;-63
2023/09/09 04:52:44;;;;;;;39.15;30.50;;;;;;;19.58;87.01;101469.75;5113676;28;20030;-63
2023/09/09 04:55:09;;;;;;;38.30;29.58;;;;;;;19.73;87.13;101480.22;5113428;28;20027;-62
2023/09/09 04:57:35;;;;;;;40.67;31.50;;;;;;;19.74;87.20;101477.53;5113422;28;20026;-63
2023/09/09 05:00:04;;;;;;;39.72;31.75;;;;;;;19.74;87.32;101473.94;5094986;28;20443;-62
2023/09/09 05:02:30;;;;;;;61.42;30.92;;;;;;;19.66;88.01;101468.75;5112912;28;20047;-62
2023/09/09 05:04:56;;;;;;;84.05;31.00;;;;;;;19.64;88.14;101475.03;5112928;28;20093;-63
2023/09/09 05:07:23;;;;;;;63.38;31.77;;;;;;;19.67;88.09;101483.03;5112639;28;20028;-62
2023/09/09 05:09:48;;;;;;;49.08;31.67;;;;;;;19.60;88.03;101482.19;5112828;28;20089;-62
2023/09/09 05:12:14;;;;;;;38.67;30.88;;;;;;;19.58;88.16;101488.50;5112880;28;20023;-63
2023/09/09 05:14:39;;;;;;;34.45;29.90;;;;;;;19.53;88.36;101485.91;5112806;28;20485;-62
2023/09/09 05:17:04;;;;;;;120.35;33.33;;;;;;;19.44;88.86;101483.34;5112736;28;20028;-63
2023/09/09 05:19:30;;;;;;;111.57;33.72;;;;;;;19.42;89.23;101480.69;5112638;28;20423;-63
2023/09/09 05:21:55;;;;;;;81.30;32.45;;;;;;;19.39;89.33;101482.53;5112721;28;20028;-63
2023/09/09 05:24:21;;;;;;;78.18;33.30;;;;;;;19.38;89.12;101489.69;5112347;28;20552;-63
2023/09/09 05:26:46;;;;;;;89.28;33.42;;;;;;;19.32;89.42;101491.59;5113003;28;20142;-63
2023/09/09 05:29:11;;;;;;;61.33;32.17;;;;;;;19.38;89.26;101488.81;5112510;28;20444;-63
2023/09/09 05:31:37;;;;;;;63.10;33.35;;;;;;;19.34;89.47;101490.66;5112550;28;20023;-63
2023/09/09 05:34:02;;;;;;;74.85;32.70;;;;;;;19.36;89.25;101491.53;5112282;28;20104;-62
2023/09/09 05:36:28;;;;;;;74.95;32.20;;;;;;;19.39;88.95;101491.47;5112505;28;20028;-63
2023/09/09 05:38:59;;;;;;;97.40;33.03;;;;;;;19.33;89.24;101504.97;5112647;28;20054;-63
2023/09/09 05:41:27;;;;;;;94.82;33.17;;;;;;;19.30;89.53;101504.13;5112726;28;20028;-63
2023/09/09 05:43:53;;;;;;;105.03;33.67;;;;;;;19.24;90.09;101505.09;5112625;28;20433;-63
2023/09/09 05:46:18;;;;;;;108.63;34.97;;;;;;;19.20;90.74;101504.25;5111999;28;20469;-63
2023/09/09 05:48:44;;;;;;;100.30;35.70;;;;;;;19.23;90.86;101503.34;5112410;28;20034;-62
2023/09/09 05:51:10;;;;;;;97.22;35.50;;;;;;;19.23;91.56;101500.66;5094589;28;20034;-63
2023/09/09 05:53:35;;;;;;;125.80;37.58;;;;;;;19.26;91.74;101509.53;5094020;28;20431;-64
2023/09/09 05:56:01;;;;;;;271.85;39.35;;;;;;;19.27;92.73;101503.28;5094357;28;20023;-62
2023/09/09 05:58:26;;;;;;;142.63;39.60;;;;;;;19.37;93.17;101508.50;5112367;28;20156;-63
2023/09/09 06:00:52;;;;;;;104.47;39.53;;;;;;;19.53;92.92;101507.34;5112081;28;20089;-63
2023/09/09 06:03:17;;;;;;;109.85;37.75;;;;;;;19.63;92.54;101516.16;5115423;28;20427;-62
2023/09/09 06:05:43;;;;;;;131.65;39.13;;;;;;;19.75;91.91;101515.97;5115919;28;20091;-62
2023/09/09 06:08:08;;;;;;;186.23;37.70;;;;;;;19.79;91.46;101508.75;5115602;28;20066;-62
2023/09/09 06:10:33;;;;;;;138.20;37.40;;;;;;;19.77;91.34;101520.38;5115888;28;20032;-61
2023/09/09 06:12:59;;;;;;;149.63;35.50;;;;;;;19.82;91.87;101525.66;5115743;28;20095;-63
2023/09/09 06:15:25;;;;;;;81.95;37.00;;;;;;;19.84;92.03;101518.50;5115935;28;20097;-63
2023/09/09 06:17:50;;;;;;;113.78;37.70;;;;;;;19.83;91.93;101519.41;5115827;28;20028;-63
2023/09/09 06:20:15;;;;;;;98.75;39.00;;;;;;;19.88;92.14;101524.69;5115902;28;20430;-62
2023/09/09 06:22:41;;;;;;;110.53;38.45;;;;;;;19.87;92.11;101520.22;5115843;28;20020;-63
2023/09/09 06:25:07;;;;;;;161.82;39.47;;;;;;;19.82;92.46;101530.16;5115495;28;20598;-63
2023/09/09 06:27:32;;;;;;;105.47;39.55;;;;;;;19.89;92.81;101524.66;5115506;28;20028;-63
2023/09/09 06:29:57;;;;;;;108.45;40.80;;;;;;;19.96;93.37;101530.81;5115707;28;20026;-63
2023/09/09 06:32:23;;;;;;;87.45;39.40;;;;;;;19.98;92.66;101531.66;5115616;28;20028;-63
2023/09/09 06:34:48;;;;;;;65.30;40.13;;;;;;;20.01;92.92;101534.31;5115309;28;20500;-63
2023/09/09 06:37:14;;;;;;;89.55;39.92;;;;;;;20.00;92.56;101544.16;5115496;28;20097;-64
2023/09/09 06:39:39;;;;;;;77.90;41.50;;;;;;;20.01;92.52;101535.19;5115111;28;20092;-63
2023/09/09 06:42:05;;;;;;;70.15;41.70;;;;;;;20.08;92.06;101545.81;5115237;28;20110;-64
2023/09/09 06:44:31;;;;;;;60.53;42.72;;;;;;;20.17;92.54;101540.25;5115269;28;20024;-63
2023/09/09 06:46:56;;;;;;;89.70;55.45;;;;;;;20.30;91.63;101551.66;5115243;28;20030;-64
2023/09/09 06:49:21;;;;;;;138.80;65.78;;;;;;;20.17;91.56;101549.22;5114976;28;20027;-61
2023/09/09 06:51:48;;;;;;;107.75;62.75;;;;;;;20.38;91.48;101550.59;5115356;28;20047;-60
2023/09/09 06:54:13;;;;;;;146.55;64.70;;;;;;;20.38;90.95;101558.66;5115295;28;20550;-61
2023/09/09 06:56:39;;;;;;;117.85;68.13;;;;;;;20.56;91.44;101557.50;5115158;28;20019;-61
2023/09/09 06:59:05;;;;;;;166.18;70.63;;;;;;;20.42;91.53;101560.38;5114977;28;20046;-60
2023/09/09 07:01:30;;;;;;;149.07;70.00;;;;;;;20.43;91.46;101567.53;5114657;28;20096;-62
2023/09/09 07:03:56;;;;;;;184.65;71.22;;;;;;;20.37;91.87;101558.72;5114916;28;20040;-61
2023/09/09 07:06:21;;;;;;;162.93;75.05;;;;;;;20.40;93.10;101564.91;5114772;28;20067;-60
2023/09/09 07:08:47;;;;;;;151.02;76.45;;;;;;;20.44;92.90;101566.63;5114614;28;20037;-61
2023/09/09 07:11:13;;;;;;;143.95;73.90;;;;;;;20.55;92.81;101568.25;5114975;28;20062;-61
2023/09/09 07:13:38;;;;;;;157.23;72.55;;;;;;;20.56;91.86;101567.34;5113855;28;20055;-61
2023/09/09 07:16:04;;;;;;;118.43;77.10;;;;;;;20.65;91.71;101565.38;5114753;28;20047;-61
2023/09/09 07:18:29;;;;;;;173.70;78.43;;;;;;;20.53;92.30;101573.66;5114636;28;20031;-60
2023/09/09 07:20:57;;;;;;;117.47;76.75;;;;;;;20.71;92.21;101575.97;5114928;28;20032;-61
2023/09/09 07:23:23;;;;;;;111.53;74.75;;;;;;;20.87;91.43;101578.38;5114385;28;20018;-62
2023/09/09 07:25:48;;;;;;;119.07;78.20;;;;;;;21.06;91.55;101576.19;5114859;28;20023;-61
2023/09/09 07:28:14;;;;;;;130.38;80.43;;;;;;;21.19;90.87;101578.56;5114552;28;20456;-60
2023/09/09 07:30:39;;;;;;;129.45;80.10;;;;;;;21.24;91.19;101576.69;5114629;28;20019;-60
2023/09/09 07:33:05;;;;;;;107.38;75.63;;;;;;;21.33;90.64;101574.75;5114641;28;20027;-61
2023/09/09 07:35:30;;;;;;;99.80;73.85;;;;;;;21.32;90.93;101575.66;5114503;28;20020;-61
2023/09/09 07:37:56;;;;;;;97.50;74.50;;;;;;;21.43;89.64;101582.56;5114343;28;20115;-60
2023/09/09 07:40:21;;;;;;;95.05;73.13;;;;;;;21.49;90.05;101590.47;5114299;28;20116;-60
2023/09/09 07:42:49;;;;;;;96.55;74.15;;;;;;;21.46;90.12;101584.31;5114259;28;20393;-61
2023/09/09 07:45:15;;;;;;;97.30;75.03;;;;;;;21.48;90.18;101586.03;5114312;28;20032;-60
2023/09/09 07:47:40;;;;;;;99.65;74.20;;;;;;;21.50;90.53;101589.59;5114415;28;20106;-61
2023/09/09 07:50:06;;;;;;;93.78;75.45;;;;;;;21.49;89.92;101586.91;5114104;28;20105;-59
2023/09/09 07:52:32;;;;;;;96.22;77.13;;;;;;;21.59;91.06;101595.69;5096013;28;20069;-60
2023/09/09 07:54:57;;;;;;;99.15;78.55;;;;;;;21.70;90.83;101597.16;5114248;28;20028;-61
2023/09/09 07:57:23;;;;;;;98.22;79.57;;;;;;;21.95;90.26;101591.22;5114323;28;20516;-61
2023/09/09 07:59:48;;;;;;;99.30;77.72;;;;;;;22.14;88.32;101595.25;5113722;28;20497;-61
2023/09/09 08:02:14;;;;;;;105.93;82.65;;;;;;;22.27;88.41;101590.44;5113512;28;20051;-61
2023/09/09 08:04:40;;;;;;;101.35;81.15;;;;;;;22.35;87.50;101590.22;5113386;28;20020;-60
2023/09/09 08:07:05;;;;;;;103.40;84.53;;;;;;;22.43;87.51;101590.91;5113626;28;20027;-62
2023/09/09 08:09:31;;;;;;;101.03;82.13;;;;;;;22.53;86.66;101597.84;5113617;28;20032;-62
2023/09/09 08:11:56;;;;;;;104.63;82.35;;;;;;;22.84;86.68;101595.19;5113594;28;20024;-61
2023/09/09 08:14:22;;;;;;;99.50;80.97;;;;;;;23.16;85.77;101591.56;5113600;28;20123;-61
2023/09/09 08:16:47;;;;;;;101.43;80.72;;;;;;;23.50;83.31;101594.13;5113601;28;20065;-61
2023/09/09 08:19:12;;;;;;;100.30;79.97;;;;;;;23.77;81.87;101602.34;5113682;28;20513;-62
2023/09/09 08:21:38;;;;;;;102.22;85.72;;;;;;;23.71;82.94;101594.41;5113664;28;20027;-61
2023/09/09 08:24:03;;;;;;;103.13;83.20;;;;;;;23.76;82.14;101599.66;5113643;28;20089;-60
2023/09/09 08:26:29;;;;;;;94.70;80.00;;;;;;;23.97;81.73;101607.94;5113380;28;20081;-61
2023/09/09 08:28:55;;;;;;;99.50;82.50;;;;;;;24.32;80.47;101613.97;5113263;28;20473;-60
2023/09/09 08:31:20;;;;;;;94.78;80.82;;;;;;;24.74;78.81;101608.03;5113613;28;20028;-61
2023/09/09 08:33:46;;;;;;;100.55;83.80;;;;;;;25.11;77.43;101606.72;5113307;28;20019;-61
2023/09/09 08:36:11;;;;;;;96.78;82.65;;;;;;;25.53;75.96;101608.72;5113282;28;20076;-61
2023/09/09 08:38:37;;;;;;;97.63;83.43;;;;;;;25.54;75.75;101613.19;5113153;28;20033;-61
2023/09/09 08:41:40;;;;;;;93.22;80.97;;;;;;;25.89;75.62;101615.38;5113300;28;20162;-62
2023/09/09 08:44:25;;;;;;;90.60;79.47;;;;;;;26.25;73.24;101606.66;5113406;28;20027;-60
2023/09/09 08:46:51;;;;;;;86.47;75.07;;;;;;;26.52;71.41;101604.66;5113318;28;20027;-60
2023/09/09 08:49:20;;;;;;;86.43;74.03;;;;;;;26.84;70.41;101610.47;5113070;28;20039;-61
2023/09/09 08:51:57;;;;;;;85.20;75.05;;;;;;;26.89;68.63;101609.28;5113208;28;20020;-61
2023/09/09 08:54:23;;;;;;;77.75;68.68;;;;;;;27.13;68.09;101615.47;5113099;28;20024;-60
2023/09/09 08:56:48;;;;;;;81.35;69.68;;;;;;;27.29;67.77;101614.78;5113059;28;20039;-61
2023/09/09 08:59:14;;;;;;;68.70;60.80;;;;;;;27.57;64.84;101619.75;5112951;28;20031;-61
2023/09/09 09:01:40;;;;;;;69.55;57.78;;;;;;;27.58;64.64;101621.50;5112732;28;20048;-62
2023/09/09 09:04:05;;;;;;;59.35;52.88;;;;;;;27.76;63.44;101625.22;5113304;28;20027;-62
2023/09/09 09:06:33;;;;;;;47.03;41.75;;;;;;;27.84;61.94;101621.19;5112655;28;20497;-62
2023/09/09 09:08:58;;;;;;;59.10;52.33;;;;;;;28.18;62.68;101620.38;5112824;28;20012;-61
2023/09/09 09:11:24;;;;;;;58.03;51.85;;;;;;;28.36;61.95;101615.00;5112800;28;20030;-61
2023/09/09 09:13:50;;;;;;;59.50;50.35;;;;;;;28.53;63.08;101619.56;5101179;28;20028;-61
2023/09/09 09:16:16;;;;;;;58.22;49.13;;;;;;;28.49;61.99;101617.97;5057640;28;20059;-62
2023/09/09 09:18:42;;;;;;;50.63;41.55;;;;;;;28.88;60.37;101621.28;5092531;28;20024;-61
2023/09/09 09:21:09;;;;;;;48.45;41.08;;;;;;;29.34;58.66;101626.97;5092791;28;20036;-60
2023/09/09 09:23:45;;;;;;;52.22;45.45;;;;;;;29.43;59.67;101625.59;5092452;28;20486;-62
2023/09/09 09:26:24;;;;;;;49.38;40.97;;;;;;;29.76;59.05;101628.25;5092243;28;20032;-61
2023/09/09 09:28:51;;;;;;;43.13;38.47;;;;;;;29.99;55.73;101624.22;5092322;28;20039;-62
2023/09/09 09:31:21;;;;;;;42.42;36.30;;;;;;;30.13;54.70;101623.41;5092622;28;20055;-62
2023/09/09 09:33:47;;;;;;;46.22;40.05;;;;;;;30.35;54.87;101628.47;5092478;28;20024;-61
2023/09/09 09:36:16;;;;;;;42.63;37.78;;;;;;;30.49;54.12;101617.59;5092279;28;20024;-61
2023/09/09 09:38:41;;;;;;;39.88;34.35;;;;;;;30.82;53.29;101617.44;5095903;28;20515;-62
2023/09/09 09:41:09;;;;;;;34.42;30.73;;;;;;;30.83;52.67;101616.44;5096527;28;20028;-62
2023/09/09 09:43:34;;;;;;;33.58;29.05;;;;;;;31.13;52.21;101610.91;5096499;28;20099;-62
2023/09/09 09:46:13;;;;;;;28.17;23.13;;;;;;;31.48;51.17;101615.13;5096264;28;20407;-61
2023/09/09 09:48:39;;;;;;;29.98;24.08;;;;;;;31.78;49.16;101615.00;5096317;28;20355;-60
2023/09/09 09:51:04;;;;;;;24.25;19.33;;;;;;;32.10;47.97;101607.38;5096313;28;20554;-62
2023/09/09 09:53:30;;;;;;;26.15;21.00;;;;;;;32.06;48.68;101603.97;5077679;28;20030;-62
2023/09/09 09:55:56;;;;;;;23.92;18.05;;;;;;;32.05;47.22;101615.03;5096233;28;20081;-61
2023/09/09 09:58:25;;;;;;;19.83;17.55;;;;;;;32.19;46.57;101609.50;5096039;28;20106;-60
2023/09/09 10:00:53;;;;;;;21.35;16.38;;;;;;;32.29;46.85;101609.72;5095586;28;20044;-61
2023/09/09 10:03:23;;;;;;;20.98;16.45;;;;;;;32.23;46.72;101613.78;5095971;28;20386;-61
2023/09/09 10:05:52;;;;;;;16.95;13.40;;;;;;;32.29;47.28;101607.00;5095612;28;20028;-61
2023/09/09 10:08:47;;;;;;;16.45;12.73;;;;;;;32.39;47.60;101616.38;5095529;28;20024;-62
2023/09/09 10:11:17;;;;;;;13.20;10.40;;;;;;;32.41;45.08;101598.84;5095630;28;20059;-62
2023/09/09 10:14:00;;;;;;;13.85;9.70;;;;;;;32.59;44.80;101604.03;5096036;28;20024;-62
2023/09/09 10:16:28;;;;;;;14.98;10.13;;;;;;;32.93;43.28;101610.75;5095656;28;20032;-62
2023/09/09 10:18:55;;;;;;;10.80;8.52;;;;;;;33.32;42.21;101612.50;5095628;28;20098;-61
2023/09/09 10:21:22;;;;;;;14.82;10.32;;;;;;;33.39;42.99;101605.56;5095532;28;20024;-62
2023/09/09 10:23:49;;;;;;;14.13;9.95;;;;;;;33.74;42.02;101604.84;5095423;28;20523;-62
2023/09/09 10:26:16;;;;;;;12.57;9.90;;;;;;;33.82;41.14;101602.41;5095154;28;20032;-61
2023/09/09 10:28:43;;;;;;;13.32;8.57;;;;;;;34.15;40.42;101606.38;5095331;28;20464;-61
2023/09/09 10:31:12;;;;;;;12.95;10.32;;;;;;;34.39;39.87;101604.47;5095385;28;20115;-61
2023/09/09 10:33:42;;;;;;;16.25;10.80;;;;;;;34.56;39.50;101597.69;5095614;28;20089;-61
2023/09/09 10:36:08;;;;;;;15.30;9.73;;;;;;;34.79;37.66;101595.88;5095395;28;20028;-62
2023/09/09 10:38:34;;;;;;;15.50;10.45;;;;;;;34.49;39.14;101596.41;5095088;28;20139;-62
2023/09/09 10:41:01;;;;;;;11.65;8.07;;;;;;;34.68;37.32;101587.59;5095467;28;20115;-61
2023/09/09 10:43:26;;;;;;;10.60;8.38;;;;;;;34.58;37.39;101592.94;5095418;28;20024;-61
2023/09/09 10:45:52;;;;;;;16.30;9.07;;;;;;;34.69;36.60;101594.84;5095212;28;20508;-62
2023/09/09 10:48:21;;;;;;;14.07;8.60;;;;;;;34.47;37.08;101592.91;5094983;28;20063;-62
2023/09/09 10:50:51;;;;;;;9.55;6.50;;;;;;;34.75;36.26;101586.13;5095046;28;20130;-62
2023/09/09 10:53:20;;;;;;;10.75;6.00;;;;;;;34.99;35.36;101598.91;5094646;28;20539;-62
2023/09/09 10:55:46;;;;;;;9.13;5.78;;;;;;;35.19;33.62;101589.06;5094708;28;20473;-62
2023/09/09 10:58:17;;;;;;;12.88;4.80;;;;;;;35.34;31.99;101596.06;5094939;28;20032;-62
2023/09/09 11:00:45;;;;;;;6.72;5.25;;;;;;;35.52;31.24;101597.31;5094980;28;20028;-62
2023/09/09 11:03:13;;;;;;;5.93;5.10;;;;;;;35.69;31.37;101595.91;5094660;28;20506;-62
2023/09/09 11:06:05;;;;;;;11.43;6.15;;;;;;;35.88;32.57;101587.84;5094511;28;20521;-62